CheckWX is a tool to help pilots better visualize weather data.  It is not intended as a substitute for an official pre-flight weather briefing.

07:12:51 UTC

KPWC METAR
Pine River Regional Airport
Pine River, Minnesota, USA
Current

18 mins ago

KPWC 210655Z AUTO 00000KT 10SM CLR 02/01 A3016 RMK AO2
Observed
May-21 @ 06:55 UTC
Visibility
10 SM
Flight Rules
VFR
Cloud Levels
  • Clear skies
Temperature
C / 36°F
Dewpoint
C / 34°F
Humidity
93%
Altimeter
30.16" Hg
Pressure
1021.32 hPa
Previous

37 mins ago

KPWC 210636Z AUTO 00000KT 10SM CLR 03/01 A3016 RMK AO2
Observed
May-21 @ 06:36 UTC
Visibility
10 SM
Flight Rules
VFR
Cloud Levels
  • Clear skies
Temperature
C / 37°F
Dewpoint
C / 34°F
Humidity
87%
Altimeter
30.16" Hg
Pressure
1021.32 hPa
Previous

57 mins ago

KPWC 210616Z AUTO 00000KT 10SM CLR 03/01 A3016 RMK AO2
Observed
May-21 @ 06:16 UTC
Visibility
10 SM
Flight Rules
VFR
Cloud Levels
  • Clear skies
Temperature
C / 37°F
Dewpoint
C / 34°F
Humidity
87%
Altimeter
30.16" Hg
Pressure
1021.32 hPa